createdAt,value
2022-11-12T00:04:22.915Z,37.38
2022-11-12T00:14:24.192Z,56.90
2022-11-12T00:24:25.413Z,43.75
2022-11-12T00:34:27.049Z,25.85
2022-11-12T00:44:29.736Z,32.70
2022-11-12T00:54:30.959Z,39.67
2022-11-12T01:04:32.212Z,31.20
2022-11-12T01:14:33.552Z,51.45
2022-11-12T01:24:34.767Z,71.95
2022-11-12T01:34:36.051Z,58.72
2022-11-12T01:44:38.440Z,47.60
2022-11-12T01:54:39.733Z,34.30
2022-11-12T02:04:40.992Z,29.10
2022-11-12T02:14:42.340Z,21.75
2022-11-12T02:24:43.579Z,30.63
2022-11-12T02:34:44.856Z,38.10
2022-11-12T02:44:46.242Z,27.77
2022-11-12T02:54:47.496Z,27.33
2022-11-12T03:04:49.704Z,22.10
2022-11-12T03:14:51.065Z,43.85
2022-11-12T03:24:52.281Z,26.50
2022-11-12T03:34:55.587Z,30.67
2022-11-12T03:44:57.028Z,25.17
2022-11-12T03:54:58.274Z,20.90
2022-11-12T04:05:18.237Z,20.48
2022-11-12T04:15:19.490Z,16.92
2022-11-12T04:25:39.427Z,19.77
2022-11-12T04:35:40.691Z,16.92
2022-11-12T04:45:42.087Z,24.30
2022-11-12T04:55:43.339Z,19.58
2022-11-12T05:05:44.630Z,15.63
2022-11-12T05:15:45.890Z,16.38
2022-11-12T05:25:47.154Z,14.63
2022-11-12T05:35:48.373Z,14.07
2022-11-12T05:45:49.664Z,16.90
2022-11-12T05:55:50.883Z,20.48
2022-11-12T06:05:52.099Z,18.90
2022-11-12T06:15:53.368Z,23.73
2022-11-12T06:25:54.601Z,19.13
2022-11-12T06:35:55.892Z,20.83
2022-11-12T06:45:57.136Z,24.58
2022-11-12T06:55:58.474Z,25.63
2022-11-12T07:05:59.747Z,24.40
2022-11-12T07:16:01.059Z,24.55
2022-11-12T07:26:02.502Z,26.30
2022-11-12T07:36:03.868Z,31.17
2022-11-12T07:46:10.317Z,26.77
2022-11-12T07:56:12.177Z,21.63
2022-11-12T08:06:13.412Z,24.75
2022-11-12T08:16:15.183Z,27.10
2022-11-12T08:26:16.533Z,21.75
2022-11-12T08:36:17.858Z,20.27
2022-11-12T08:46:19.099Z,20.80
2022-11-12T08:56:20.452Z,22.65
2022-11-12T09:06:21.703Z,16.17
2022-11-12T09:16:24.172Z,17.58
2022-11-12T09:26:25.410Z,17.73
2022-11-12T09:36:26.679Z,18.77
2022-11-12T09:46:28.689Z,19.85
2022-11-12T09:56:30.359Z,24.65
2022-11-12T10:06:31.724Z,21.73
2022-11-12T10:16:45.039Z,26.90
2022-11-12T10:26:46.319Z,27.75
2022-11-12T10:36:47.675Z,24.42
2022-11-12T10:46:48.954Z,34.45
2022-11-12T10:56:55.143Z,116.55
2022-11-12T11:06:56.804Z,40.35
2022-11-12T11:16:58.050Z,55.15
2022-11-12T11:26:59.373Z,40.83
2022-11-12T11:37:00.633Z,40.88
2022-11-12T11:47:01.880Z,38.10
2022-11-12T11:57:03.130Z,35.83
2022-11-12T12:07:04.450Z,51.58
2022-11-12T12:17:05.775Z,40.50
2022-11-12T12:27:07.181Z,35.78
2022-11-12T12:37:08.418Z,27.67
2022-11-12T12:47:09.641Z,27.92
2022-11-12T12:57:10.870Z,25.70
2022-11-12T13:07:12.141Z,23.55
2022-11-12T13:17:13.439Z,24.85
2022-11-12T13:27:14.721Z,28.23
2022-11-12T13:37:15.964Z,22.58
2022-11-12T13:47:17.209Z,27.10
2022-11-12T13:57:18.449Z,27.60
2022-11-12T14:07:19.754Z,29.48
2022-11-12T14:17:22.462Z,27.33
2022-11-12T14:27:24.072Z,28.70
2022-11-12T14:37:25.324Z,30.58
2022-11-12T14:47:26.613Z,28.85
2022-11-12T14:57:27.865Z,30.13
2022-11-12T15:07:29.231Z,28.88
2022-11-12T15:17:30.472Z,30.08
2022-11-12T15:27:31.745Z,32.33
2022-11-12T15:37:33.498Z,36.72
2022-11-12T15:47:34.755Z,37.78
2022-11-12T15:57:36.013Z,39.28
2022-11-12T16:07:37.272Z,35.55
2022-11-12T16:17:38.586Z,34.25
2022-11-12T16:27:40.060Z,32.03
2022-11-12T16:37:41.347Z,39.20
2022-11-12T16:47:42.617Z,37.38
2022-11-12T16:57:43.930Z,42.28
2022-11-12T17:07:45.585Z,54.42
2022-11-12T17:17:46.826Z,64.97
2022-11-12T17:27:48.112Z,80.95
2022-11-12T17:37:51.233Z,93.22
2022-11-12T17:47:52.617Z,105.80
2022-11-12T17:57:53.858Z,93.93
2022-11-12T18:07:55.114Z,98.85
2022-11-12T18:17:56.455Z,106.88
2022-11-12T18:27:57.877Z,118.28
2022-11-12T18:37:59.151Z,114.82
2022-11-12T18:48:00.441Z,138.00
2022-11-12T18:58:01.719Z,120.57
2022-11-12T19:08:03.041Z,138.43
2022-11-12T19:18:04.331Z,178.13
2022-11-12T19:28:05.603Z,162.80
2022-11-12T19:38:06.900Z,191.07
2022-11-12T19:48:08.180Z,127.93
2022-11-12T19:58:09.753Z,120.38
2022-11-12T20:08:11.397Z,150.63
2022-11-12T20:18:26.053Z,185.20
2022-11-12T20:38:29.701Z,102.63
2022-11-12T20:48:31.224Z,150.48
2022-11-12T20:58:32.846Z,105.68
2022-11-12T21:08:34.204Z,93.10
2022-11-12T21:18:35.808Z,96.10
2022-11-12T21:28:43.394Z,100.97
2022-11-12T21:38:44.962Z,94.18
2022-11-12T21:48:46.645Z,70.25
2022-11-12T21:58:50.056Z,62.35
2022-11-12T22:08:51.359Z,63.28
2022-11-12T22:18:54.921Z,70.22
2022-11-12T22:28:56.955Z,59.17
2022-11-12T22:38:58.276Z,47.58
2022-11-12T22:48:59.719Z,49.40
2022-11-12T22:59:03.480Z,49.38
2022-11-12T23:09:04.802Z,55.17
2022-11-12T23:19:06.473Z,49.58
2022-11-12T23:29:08.002Z,53.17
2022-11-12T23:39:09.430Z,60.20
2022-11-12T23:49:10.700Z,59.42
2022-11-12T23:59:11.955Z,52.50
